Startpagina
METAR-TAF:

METAR-TAF

Vliegvelden :

Guilin, China

breedte: 25-20N, lengte: 110-18E, hoogte: 166 m

Actueel weer

Dit bericht is 56 minuten geleden gemaakt, om 12:00 UTC
Wind 10 kt uit het noordoosten
Temperatuur 13°C
Vochtigheid 58%
Druk 1024 hPa
Zicht 10 km of meer
Gebroken wolken op 6600 ft

METAR: ZGKL 221200Z 05005MPS 9999 BKN066 13/05 Q1024 NOSIG

Tijdstip: 20:56 (12:56 UTC)

Verwachting

Dit bericht is 3 uur en het 54 minuten geleden gemaakt, om 09:02 UTC
Verwachting geldig van 22 om 12 UTC tot 23 om 12 UTC
Wind 8 kt uit het noordoosten
Zicht 10 km of meer
geen wolken onder 1500 m en geen cumulonimbus

TAF: ZGKL 220902Z 2212/2312 05004MPS CAVOK TX17/2307Z TN08/2223Z

Waarnemingen en weersverwachtingen van meer dan 4000 vliegvelden (METAR en TAF).

De beschikbare stations zijn de gele en rode punten op de kaart.

Ga met uw muis naar het station om de naam te zien.

Klik dan om waarnemingen en weersverwachtingen te zien.

kaart wijzigen: klik op de groene knoppen met een zwart kruis om in te zoomen, op de groene knop met een streepje om uit te zoomen of op de groene pijlen voor aangrenzende kaarten.


METAR-TAF: